createdAt,value
2018-02-13T00:00:16.571Z,4.80
2018-02-13T00:01:23.741Z,5.00
2018-02-13T00:02:30.586Z,5.30
2018-02-13T00:03:37.347Z,5.20
2018-02-13T00:04:44.515Z,5.70
2018-02-13T00:05:51.184Z,5.40
2018-02-13T00:06:57.873Z,5.10
2018-02-13T00:08:04.656Z,5.50
2018-02-13T00:09:11.383Z,5.90
2018-02-13T00:10:18.544Z,5.90
2018-02-13T00:11:25.691Z,6.40
2018-02-13T00:12:32.827Z,7.00
2018-02-13T00:13:39.997Z,7.70
2018-02-13T00:14:46.671Z,7.60
2018-02-13T00:15:53.943Z,6.60
2018-02-13T00:17:00.619Z,6.40
2018-02-13T00:18:07.324Z,6.10
2018-02-13T00:19:13.979Z,5.70
2018-02-13T00:20:21.144Z,6.20
2018-02-13T00:21:27.807Z,6.80
2018-02-13T00:22:34.600Z,7.10
2018-02-13T00:23:41.436Z,7.70
2018-02-13T00:24:48.127Z,6.80
2018-02-13T00:25:54.778Z,6.90
2018-02-13T00:27:01.447Z,6.60
2018-02-13T00:28:08.601Z,6.90
2018-02-13T00:29:15.777Z,7.30
2018-02-13T00:30:22.435Z,7.70
2018-02-13T00:31:29.583Z,8.80
2018-02-13T00:32:36.731Z,9.90
2018-02-13T00:33:43.435Z,9.80
2018-02-13T00:34:50.188Z,7.80
2018-02-13T00:35:57.342Z,9.50
2018-02-13T00:37:04.520Z,8.40
2018-02-13T00:38:11.179Z,9.00
2018-02-13T00:39:17.875Z,7.90
2018-02-13T00:40:24.523Z,7.80
2018-02-13T00:41:31.207Z,8.50
2018-02-13T00:42:37.882Z,8.00
2018-02-13T00:43:45.061Z,8.70
2018-02-13T00:44:52.315Z,9.90
2018-02-13T00:45:58.959Z,9.70
2018-02-13T00:47:05.714Z,9.50
2018-02-13T00:48:12.886Z,8.80
2018-02-13T00:49:20.022Z,7.30
2018-02-13T00:50:27.219Z,6.20
2018-02-13T00:51:33.897Z,6.90
2018-02-13T00:52:40.583Z,7.70
2018-02-13T00:53:47.755Z,7.30
2018-02-13T00:54:54.427Z,7.40
2018-02-13T00:56:01.134Z,8.00
2018-02-13T00:57:07.794Z,7.10
2018-02-13T00:58:14.959Z,7.40
2018-02-13T00:59:22.358Z,7.30
2018-02-13T01:00:28.991Z,7.00
2018-02-13T01:01:36.175Z,7.10
2018-02-13T01:02:42.866Z,7.80
2018-02-13T01:03:49.546Z,7.20
2018-02-13T01:04:56.222Z,7.00
2018-02-13T01:06:02.899Z,6.90
2018-02-13T01:07:09.594Z,6.60
2018-02-13T01:08:16.307Z,6.50
2018-02-13T01:09:22.967Z,6.90
2018-02-13T01:10:30.115Z,6.70
2018-02-13T01:11:37.329Z,6.80
2018-02-13T01:12:44.074Z,6.60
2018-02-13T01:13:51.563Z,6.80
2018-02-13T01:14:58.242Z,6.50
2018-02-13T01:16:05.023Z,6.90
2018-02-13T01:17:12.215Z,6.60
2018-02-13T01:18:18.866Z,6.00
2018-02-13T01:19:26.032Z,6.80
2018-02-13T01:20:32.719Z,6.70
2018-02-13T01:21:39.412Z,6.50
2018-02-13T01:22:46.108Z,6.80
2018-02-13T01:23:52.812Z,7.00
2018-02-13T01:24:59.591Z,6.50
2018-02-13T01:26:06.354Z,6.40
2018-02-13T01:27:13.046Z,6.40
2018-02-13T01:28:19.728Z,7.10
2018-02-13T01:29:26.430Z,6.70
2018-02-13T01:30:33.107Z,6.10
2018-02-13T01:31:39.885Z,6.00
2018-02-13T01:32:46.712Z,5.50
2018-02-13T01:33:53.358Z,5.80
2018-02-13T01:35:00.511Z,5.60
2018-02-13T01:36:07.679Z,5.70
2018-02-13T01:37:14.860Z,6.30
2018-02-13T01:38:21.530Z,5.20
2018-02-13T01:39:28.222Z,5.80
2018-02-13T01:40:34.927Z,5.20
2018-02-13T01:41:41.590Z,5.10
2018-02-13T01:42:48.394Z,5.20
2018-02-13T01:43:55.106Z,5.00
2018-02-13T01:45:01.776Z,5.70
2018-02-13T01:46:08.957Z,5.20
2018-02-13T01:47:15.637Z,5.10
2018-02-13T01:48:22.349Z,5.70
2018-02-13T01:49:29.030Z,5.30
2018-02-13T01:50:35.690Z,4.80
2018-02-13T01:51:42.866Z,5.00
2018-02-13T01:52:49.554Z,4.90
2018-02-13T01:53:56.240Z,4.90
2018-02-13T01:55:03.017Z,4.70
2018-02-13T01:56:09.683Z,5.40
2018-02-13T01:57:16.836Z,4.60
2018-02-13T01:58:24.004Z,4.90
2018-02-13T01:59:30.699Z,4.90
2018-02-13T02:00:37.413Z,4.50
2018-02-13T02:01:44.076Z,4.70
2018-02-13T02:02:51.249Z,5.20
2018-02-13T02:03:57.963Z,4.90
2018-02-13T02:05:05.011Z,5.00
2018-02-13T02:06:11.775Z,4.60
2018-02-13T02:07:18.478Z,5.10
2018-02-13T02:08:25.232Z,4.80
2018-02-13T02:09:31.963Z,4.60
2018-02-13T02:10:38.681Z,4.80
2018-02-13T02:11:45.384Z,4.50
2018-02-13T02:12:52.090Z,4.90
2018-02-13T02:13:58.921Z,5.10
2018-02-13T02:15:05.630Z,5.40
2018-02-13T02:16:12.346Z,4.50
2018-02-13T02:17:19.023Z,4.50
2018-02-13T02:18:25.719Z,4.90
2018-02-13T02:19:32.387Z,4.50
2018-02-13T02:20:39.218Z,5.00
2018-02-13T02:21:45.894Z,4.90
2018-02-13T02:22:52.571Z,4.90
2018-02-13T02:23:59.275Z,5.00
2018-02-13T02:25:05.972Z,4.50
2018-02-13T02:26:12.715Z,5.20
2018-02-13T02:27:19.428Z,5.00
2018-02-13T02:28:26.194Z,4.50
2018-02-13T02:29:32.887Z,4.00
2018-02-13T02:30:39.629Z,4.10
2018-02-13T02:31:46.340Z,4.70
2018-02-13T02:32:53.027Z,4.10
2018-02-13T02:33:59.751Z,4.50
2018-02-13T02:35:06.422Z,5.00
2018-02-13T02:36:13.216Z,4.80
2018-02-13T02:37:20.139Z,4.10
2018-02-13T02:38:26.815Z,4.10
2018-02-13T02:39:33.713Z,3.80
2018-02-13T02:40:40.433Z,4.30
2018-02-13T02:41:47.248Z,4.30
2018-02-13T02:42:53.919Z,4.30
2018-02-13T02:44:00.728Z,4.30
2018-02-13T02:45:07.426Z,4.70
2018-02-13T02:46:14.155Z,4.50
2018-02-13T02:47:20.835Z,4.60
2018-02-13T02:48:27.523Z,4.60
2018-02-13T02:49:34.198Z,4.60
2018-02-13T02:50:40.896Z,4.50
2018-02-13T02:51:47.603Z,4.40
2018-02-13T02:52:54.335Z,4.70
2018-02-13T02:54:01.029Z,4.50
2018-02-13T02:55:07.726Z,4.50
2018-02-13T02:56:14.475Z,4.40
2018-02-13T02:57:21.176Z,4.40
2018-02-13T02:58:27.881Z,4.80
2018-02-13T02:59:34.822Z,4.30
2018-02-13T03:00:41.512Z,4.20
2018-02-13T03:01:48.255Z,4.20
2018-02-13T03:02:54.967Z,4.20
2018-02-13T03:04:01.676Z,4.50
2018-02-13T03:05:08.511Z,4.60
2018-02-13T03:06:15.215Z,4.70
2018-02-13T03:07:21.950Z,4.50
2018-02-13T03:08:28.656Z,4.10
2018-02-13T03:09:35.315Z,4.20
2018-02-13T03:10:41.990Z,4.70
2018-02-13T03:11:48.816Z,4.50
2018-02-13T03:12:55.493Z,4.40
2018-02-13T03:14:02.663Z,4.60
2018-02-13T03:15:09.351Z,3.80
2018-02-13T03:16:16.055Z,4.10
2018-02-13T03:17:23.107Z,4.20
2018-02-13T03:18:29.811Z,4.20
2018-02-13T03:19:36.511Z,4.50
2018-02-13T03:20:43.259Z,4.20
2018-02-13T03:21:49.971Z,4.40
2018-02-13T03:22:56.782Z,4.20
2018-02-13T03:24:03.455Z,4.00
2018-02-13T03:25:10.640Z,4.60
2018-02-13T03:26:17.348Z,3.90
2018-02-13T03:27:24.074Z,4.10
2018-02-13T03:28:30.859Z,4.40
2018-02-13T03:29:37.599Z,4.40
2018-02-13T03:30:44.300Z,4.20
2018-02-13T03:31:51.032Z,4.50
2018-02-13T03:32:57.754Z,4.50
2018-02-13T03:34:04.540Z,5.10
2018-02-13T03:35:11.251Z,4.30
2018-02-13T03:36:17.942Z,4.50
2018-02-13T03:37:24.620Z,4.40
2018-02-13T03:38:31.311Z,4.30
2018-02-13T03:39:38.003Z,4.70
2018-02-13T03:40:44.674Z,4.70
2018-02-13T03:41:51.367Z,4.20
2018-02-13T03:42:58.417Z,4.70
2018-02-13T03:44:05.086Z,5.00
2018-02-13T03:45:11.802Z,4.70
2018-02-13T03:46:18.475Z,4.80
2018-02-13T03:47:25.154Z,5.10
2018-02-13T03:48:31.952Z,4.70
2018-02-13T03:49:38.606Z,4.70
2018-02-13T03:50:45.767Z,5.10
2018-02-13T03:51:52.462Z,4.80
2018-02-13T03:52:59.147Z,5.50
2018-02-13T03:54:05.875Z,5.40
2018-02-13T03:55:12.578Z,5.20
2018-02-13T03:56:19.332Z,4.90
2018-02-13T03:57:26.155Z,5.20
2018-02-13T03:58:32.864Z,4.80
2018-02-13T03:59:39.593Z,5.00
2018-02-13T04:00:46.288Z,5.20
2018-02-13T04:01:52.991Z,4.70
2018-02-13T04:02:59.808Z,4.90
2018-02-13T04:04:06.973Z,5.20
2018-02-13T04:05:13.679Z,5.50
2018-02-13T04:06:20.383Z,5.10
2018-02-13T04:07:27.065Z,5.30
2018-02-13T04:08:33.782Z,4.90
2018-02-13T04:09:40.456Z,5.20
2018-02-13T04:10:47.175Z,5.50
2018-02-13T04:11:53.980Z,4.70
2018-02-13T04:13:00.692Z,4.60
2018-02-13T04:14:07.378Z,5.20
2018-02-13T04:15:14.132Z,5.30
2018-02-13T04:16:20.856Z,5.60
2018-02-13T04:17:27.591Z,5.50
2018-02-13T04:18:34.380Z,5.30
2018-02-13T04:19:41.072Z,4.60
2018-02-13T04:20:47.776Z,4.70
2018-02-13T04:21:54.482Z,5.10
2018-02-13T04:23:01.170Z,5.30
2018-02-13T04:24:07.872Z,5.10
2018-02-13T04:25:14.558Z,4.70
2018-02-13T04:26:21.275Z,5.00
2018-02-13T04:27:28.077Z,5.10
2018-02-13T04:28:34.807Z,4.80
2018-02-13T04:29:41.515Z,4.50
2018-02-13T04:30:48.194Z,5.10
2018-02-13T04:31:54.969Z,4.40
2018-02-13T04:33:01.635Z,5.40
2018-02-13T04:34:08.322Z,5.10
2018-02-13T04:35:14.994Z,4.90
2018-02-13T04:36:21.805Z,5.40
2018-02-13T04:37:28.528Z,5.30
2018-02-13T04:38:35.199Z,5.30
2018-02-13T04:39:42.372Z,5.10
2018-02-13T04:40:49.067Z,5.00
2018-02-13T04:41:55.771Z,4.90
2018-02-13T04:43:02.462Z,5.40
2018-02-13T04:44:09.162Z,5.00
2018-02-13T04:45:16.051Z,5.20
2018-02-13T04:46:22.774Z,5.20
2018-02-13T04:47:29.455Z,4.70
2018-02-13T04:48:36.162Z,4.90
2018-02-13T04:49:42.827Z,5.10
2018-02-13T04:50:49.508Z,5.20
2018-02-13T04:51:56.215Z,5.00
2018-02-13T04:53:03.014Z,5.30
2018-02-13T04:54:09.706Z,4.90
2018-02-13T04:55:16.387Z,5.00
2018-02-13T04:56:23.163Z,5.00
2018-02-13T04:57:29.868Z,4.90
2018-02-13T04:58:36.556Z,4.50
2018-02-13T04:59:43.262Z,4.20
2018-02-13T05:00:50.055Z,5.30
2018-02-13T05:01:56.733Z,4.50
2018-02-13T05:03:03.922Z,5.20
2018-02-13T05:04:10.605Z,5.20
2018-02-13T05:05:17.300Z,5.00
2018-02-13T05:06:24.010Z,5.00
2018-02-13T05:07:30.739Z,5.20
2018-02-13T05:08:37.433Z,5.00
2018-02-13T05:09:44.603Z,5.10
2018-02-13T05:10:51.279Z,5.70
2018-02-13T05:11:57.952Z,5.60
2018-02-13T05:13:04.826Z,5.20
2018-02-13T05:14:11.523Z,5.30
2018-02-13T05:15:18.216Z,5.60
2018-02-13T05:16:24.918Z,4.90
2018-02-13T05:17:31.670Z,5.00
2018-02-13T05:18:38.358Z,5.80
2018-02-13T05:19:45.194Z,5.80
2018-02-13T05:20:51.847Z,5.10
2018-02-13T05:21:58.542Z,5.20
2018-02-13T05:23:05.252Z,5.40
2018-02-13T05:24:11.950Z,5.20
2018-02-13T05:25:18.633Z,5.20
2018-02-13T05:26:25.341Z,5.30
2018-02-13T05:27:32.026Z,5.10
2018-02-13T05:28:38.826Z,5.50
2018-02-13T05:29:45.614Z,5.00
2018-02-13T05:30:52.303Z,5.20
2018-02-13T05:31:58.994Z,5.20
2018-02-13T05:33:05.720Z,5.20
2018-02-13T05:34:12.403Z,6.20
2018-02-13T05:35:19.069Z,5.70
2018-02-13T05:36:25.835Z,6.10
2018-02-13T05:37:32.991Z,5.50
2018-02-13T05:38:39.691Z,5.10
2018-02-13T05:39:46.405Z,5.10
2018-02-13T05:40:53.111Z,5.80
2018-02-13T05:41:59.811Z,5.40
2018-02-13T05:43:06.527Z,4.90
2018-02-13T05:44:13.243Z,5.30
2018-02-13T05:45:19.915Z,4.70
2018-02-13T05:46:26.710Z,5.00
2018-02-13T05:47:33.370Z,4.90
2018-02-13T05:48:40.645Z,5.00
2018-02-13T05:49:47.463Z,5.20
2018-02-13T05:50:54.348Z,5.00
2018-02-13T05:52:01.096Z,4.90
2018-02-13T05:53:08.015Z,5.50
2018-02-13T05:54:14.776Z,5.60
2018-02-13T05:55:21.480Z,5.90
2018-02-13T05:56:28.171Z,9.50
2018-02-13T05:57:34.862Z,17.80
2018-02-13T05:58:41.576Z,17.30
2018-02-13T05:59:48.255Z,16.00
2018-02-13T06:00:54.983Z,13.70
2018-02-13T06:02:01.672Z,10.90
2018-02-13T06:03:08.358Z,9.50
2018-02-13T06:04:15.170Z,10.20
2018-02-13T06:05:21.839Z,7.90
2018-02-13T06:06:28.543Z,6.30
2018-02-13T06:07:35.226Z,6.70
2018-02-13T06:08:42.089Z,7.00
2018-02-13T06:09:48.982Z,6.80
2018-02-13T06:10:55.681Z,7.00
2018-02-13T06:12:02.433Z,7.00
2018-02-13T06:13:09.138Z,6.90
2018-02-13T06:14:15.827Z,7.60
2018-02-13T06:15:22.684Z,7.40
2018-02-13T06:16:29.406Z,7.50
2018-02-13T06:17:36.135Z,7.60
2018-02-13T06:18:42.847Z,7.30
2018-02-13T06:19:49.660Z,7.40
2018-02-13T06:20:56.533Z,7.40
2018-02-13T06:22:03.407Z,6.60
2018-02-13T06:23:10.107Z,7.40
2018-02-13T06:24:16.926Z,7.60
2018-02-13T06:25:23.718Z,7.70
2018-02-13T06:26:30.489Z,7.60
2018-02-13T06:27:37.196Z,7.40
2018-02-13T06:28:44.020Z,7.60
2018-02-13T06:29:50.718Z,7.60
2018-02-13T06:30:57.410Z,7.60
2018-02-13T06:32:04.167Z,7.60
2018-02-13T06:33:10.859Z,6.90
2018-02-13T06:34:17.570Z,7.90
2018-02-13T06:35:24.271Z,7.70
2018-02-13T06:36:31.079Z,6.70
2018-02-13T06:37:37.794Z,7.50
2018-02-13T06:38:44.519Z,7.60
2018-02-13T06:39:51.243Z,7.60
2018-02-13T06:40:57.935Z,7.60
2018-02-13T06:42:04.671Z,7.20
2018-02-13T06:43:11.400Z,7.60
2018-02-13T06:44:18.134Z,6.70
2018-02-13T06:45:24.822Z,6.80
2018-02-13T06:46:31.530Z,6.80
2018-02-13T06:47:38.247Z,7.70
2018-02-13T06:48:45.040Z,8.20
2018-02-13T06:49:51.758Z,7.90
2018-02-13T06:50:58.548Z,8.10
2018-02-13T06:52:05.253Z,8.40
2018-02-13T06:53:11.988Z,7.70
2018-02-13T06:54:18.695Z,7.50
2018-02-13T06:55:25.428Z,8.20
2018-02-13T06:56:32.130Z,8.00
2018-02-13T06:57:38.932Z,7.60
2018-02-13T06:58:45.986Z,7.80
2018-02-13T06:59:52.729Z,7.60
2018-02-13T07:00:59.415Z,8.40
2018-02-13T07:02:06.131Z,8.90
2018-02-13T07:03:13.133Z,9.30
2018-02-13T07:04:19.632Z,9.20
2018-02-13T07:05:26.365Z,9.40
2018-02-13T07:06:33.099Z,9.40
2018-02-13T07:07:39.802Z,10.70
2018-02-13T07:08:46.506Z,12.60
2018-02-13T07:09:53.236Z,12.20
2018-02-13T07:10:59.910Z,10.90
2018-02-13T07:12:06.619Z,11.10
2018-02-13T07:13:13.324Z,11.70
2018-02-13T07:14:20.039Z,12.20
2018-02-13T07:15:26.805Z,12.30
2018-02-13T07:16:33.469Z,12.70
2018-02-13T07:17:40.626Z,12.80
2018-02-13T07:18:47.869Z,12.00
2018-02-13T07:19:54.600Z,12.80
2018-02-13T07:21:01.300Z,12.60
2018-02-13T07:22:08.459Z,12.20
2018-02-13T07:23:15.215Z,10.90
2018-02-13T07:24:22.007Z,12.10
2018-02-13T07:25:28.693Z,10.90
2018-02-13T07:26:35.439Z,11.80
2018-02-13T07:27:42.116Z,12.00
2018-02-13T07:28:48.806Z,12.90
2018-02-13T07:29:55.487Z,11.90
2018-02-13T07:31:02.220Z,11.70
2018-02-13T07:32:08.880Z,10.50
2018-02-13T07:33:16.066Z,11.30
2018-02-13T07:34:22.831Z,11.40
2018-02-13T07:35:29.516Z,11.70
2018-02-13T07:36:36.373Z,11.70
2018-02-13T07:37:43.075Z,12.60
2018-02-13T07:38:50.229Z,11.80
2018-02-13T07:39:56.914Z,11.00
2018-02-13T07:41:03.716Z,11.00
2018-02-13T07:42:10.411Z,10.90
2018-02-13T07:43:17.105Z,10.40
2018-02-13T07:44:23.799Z,9.40
2018-02-13T07:45:30.461Z,9.40
2018-02-13T07:46:37.178Z,9.80
2018-02-13T07:47:43.879Z,10.20
2018-02-13T07:48:51.056Z,9.10
2018-02-13T07:49:57.724Z,9.50
2018-02-13T07:51:04.395Z,9.70
2018-02-13T07:52:11.095Z,11.00
2018-02-13T07:53:17.876Z,10.60
2018-02-13T07:54:24.545Z,11.40
2018-02-13T07:55:31.695Z,12.80
2018-02-13T07:56:38.863Z,14.30
2018-02-13T07:57:46.078Z,14.60
2018-02-13T07:58:52.774Z,13.40
2018-02-13T07:59:59.626Z,14.40
2018-02-13T08:01:06.410Z,13.20
2018-02-13T08:02:13.076Z,13.10
2018-02-13T08:03:20.285Z,14.20
2018-02-13T08:04:26.968Z,12.90
2018-02-13T08:05:33.672Z,14.80
2018-02-13T08:06:40.339Z,15.20
2018-02-13T08:07:47.089Z,18.40
2018-02-13T08:08:53.756Z,17.70
2018-02-13T08:10:00.474Z,18.80
2018-02-13T08:11:07.258Z,17.80
2018-02-13T08:12:13.936Z,15.30
2018-02-13T08:13:20.672Z,14.60
2018-02-13T08:14:27.335Z,15.90
2018-02-13T08:15:34.035Z,15.80
2018-02-13T08:16:40.767Z,15.90
2018-02-13T08:17:47.555Z,14.80
2018-02-13T08:18:54.316Z,14.40
2018-02-13T08:20:01.451Z,13.70
2018-02-13T08:21:08.599Z,12.70
2018-02-13T08:22:15.275Z,12.80
2018-02-13T08:23:21.964Z,12.20
2018-02-13T08:24:29.076Z,12.90
2018-02-13T08:25:35.816Z,11.40
2018-02-13T08:26:42.509Z,12.90
2018-02-13T08:27:49.188Z,12.10
2018-02-13T08:28:55.923Z,12.70
2018-02-13T08:30:02.588Z,11.40
2018-02-13T08:31:09.744Z,11.20
2018-02-13T08:32:17.445Z,12.00
2018-02-13T08:33:23.785Z,11.90
2018-02-13T08:34:30.633Z,12.30
2018-02-13T08:35:37.578Z,12.80
2018-02-13T08:36:44.254Z,11.20
2018-02-13T08:37:50.946Z,13.10
2018-02-13T08:38:57.612Z,12.30
2018-02-13T08:40:04.312Z,11.10
2018-02-13T08:41:11.044Z,11.00
2018-02-13T08:42:17.715Z,13.90
2018-02-13T08:43:24.857Z,12.20
2018-02-13T08:44:32.060Z,11.10
2018-02-13T08:45:38.860Z,11.30
2018-02-13T08:46:46.024Z,10.00
2018-02-13T08:47:52.680Z,10.50
2018-02-13T08:48:59.847Z,10.20
2018-02-13T08:50:07.045Z,10.50
2018-02-13T08:51:13.744Z,11.30
2018-02-13T08:52:20.446Z,10.00
2018-02-13T08:53:27.105Z,9.70
2018-02-13T08:54:33.776Z,9.00
2018-02-13T08:55:40.484Z,9.20
2018-02-13T08:56:47.144Z,9.60
2018-02-13T08:57:53.834Z,9.50
2018-02-13T08:59:01.020Z,9.70
2018-02-13T09:00:07.784Z,9.80
2018-02-13T09:01:14.454Z,9.80
2018-02-13T09:02:21.119Z,8.70
2018-02-13T09:03:28.279Z,9.30
2018-02-13T09:04:34.958Z,9.80
2018-02-13T09:05:41.679Z,9.40
2018-02-13T09:06:48.367Z,9.80
2018-02-13T09:07:55.087Z,8.80
2018-02-13T09:09:01.765Z,9.30
2018-02-13T09:10:08.575Z,9.20
2018-02-13T09:11:15.275Z,9.60
2018-02-13T09:12:21.966Z,10.20
2018-02-13T09:13:28.660Z,9.60
2018-02-13T09:14:35.351Z,9.70
2018-02-13T09:15:42.067Z,10.10
2018-02-13T09:16:49.026Z,9.00
2018-02-13T09:17:55.712Z,8.50
2018-02-13T09:19:02.424Z,7.90
2018-02-13T09:20:09.108Z,8.10
2018-02-13T09:21:15.808Z,7.90
2018-02-13T09:22:22.502Z,8.30
2018-02-13T09:23:29.190Z,9.00
2018-02-13T09:24:35.962Z,8.30
2018-02-13T09:25:42.647Z,8.30
2018-02-13T09:26:49.391Z,8.70
2018-02-13T09:27:56.076Z,7.90
2018-02-13T09:29:02.847Z,8.20
2018-02-13T09:30:09.534Z,8.60
2018-02-13T09:31:16.294Z,8.50
2018-02-13T09:32:23.009Z,8.20
2018-02-13T09:33:30.060Z,8.50
2018-02-13T09:34:36.747Z,8.90
2018-02-13T09:35:43.431Z,9.00
2018-02-13T09:36:50.108Z,8.60
2018-02-13T09:37:56.853Z,8.60
2018-02-13T09:39:03.527Z,8.60
2018-02-13T09:40:10.252Z,8.40
2018-02-13T09:41:16.956Z,8.60
2018-02-13T09:42:25.191Z,7.90
2018-02-13T09:43:30.722Z,8.70
2018-02-13T09:44:37.524Z,8.00
2018-02-13T09:45:44.209Z,8.90
2018-02-13T09:46:50.911Z,9.00
2018-02-13T09:47:57.655Z,8.40
2018-02-13T09:49:04.380Z,8.80
2018-02-13T09:50:11.059Z,8.10
2018-02-13T09:51:17.850Z,8.30
2018-02-13T09:52:24.568Z,8.50
2018-02-13T09:53:31.260Z,9.50
2018-02-13T09:54:37.963Z,8.30
2018-02-13T09:55:44.675Z,8.50
2018-02-13T09:56:51.376Z,8.90
2018-02-13T09:57:58.088Z,7.90
2018-02-13T09:59:04.840Z,9.30
2018-02-13T10:00:11.521Z,8.40
2018-02-13T10:01:18.298Z,8.00
2018-02-13T10:02:25.306Z,8.30
2018-02-13T10:03:32.019Z,8.00
2018-02-13T10:04:38.743Z,8.20
2018-02-13T10:05:45.456Z,7.80
2018-02-13T10:06:52.143Z,8.30
2018-02-13T10:07:58.870Z,8.20
2018-02-13T10:09:05.654Z,8.40
2018-02-13T10:10:12.809Z,7.90
2018-02-13T10:11:19.491Z,8.30
2018-02-13T10:12:26.178Z,8.40
2018-02-13T10:13:33.365Z,7.50
2018-02-13T10:14:40.048Z,8.40
2018-02-13T10:15:46.775Z,8.50
2018-02-13T10:16:53.944Z,7.60
2018-02-13T10:18:00.687Z,8.20
2018-02-13T10:19:07.458Z,7.60
2018-02-13T10:20:14.599Z,7.90
2018-02-13T10:21:21.343Z,7.70
2018-02-13T10:22:28.103Z,7.50
2018-02-13T10:23:34.868Z,6.80
2018-02-13T10:24:41.639Z,7.70
2018-02-13T10:25:48.331Z,6.70
2018-02-13T10:26:55.039Z,7.00
2018-02-13T10:28:01.731Z,6.80
2018-02-13T10:29:08.458Z,7.00
2018-02-13T10:30:15.123Z,7.00
2018-02-13T10:31:21.903Z,7.00
2018-02-13T10:32:28.651Z,6.60
2018-02-13T10:33:35.615Z,6.50
2018-02-13T10:34:42.815Z,6.60
2018-02-13T10:35:49.595Z,6.70
2018-02-13T10:36:56.267Z,6.80
2018-02-13T10:38:02.979Z,6.50
2018-02-13T10:39:09.759Z,6.50
2018-02-13T10:40:16.452Z,6.30
2018-02-13T10:41:23.148Z,7.10
2018-02-13T10:42:29.903Z,5.70
2018-02-13T10:43:36.559Z,5.90
2018-02-13T10:44:43.248Z,6.30
2018-02-13T10:45:49.922Z,6.30
2018-02-13T10:46:56.639Z,5.90
2018-02-13T10:48:03.354Z,5.70
2018-02-13T10:49:10.017Z,6.00
2018-02-13T10:50:16.703Z,6.10
2018-02-13T10:51:23.419Z,6.00
2018-02-13T10:52:30.184Z,5.70
2018-02-13T10:53:36.883Z,5.70
2018-02-13T10:54:43.621Z,5.90
2018-02-13T10:55:50.290Z,5.90
2018-02-13T10:56:57.000Z,6.00
2018-02-13T10:58:03.682Z,5.90
2018-02-13T10:59:10.361Z,5.40
2018-02-13T11:00:17.563Z,6.00
2018-02-13T11:01:24.526Z,5.50
2018-02-13T11:02:31.243Z,5.70
2018-02-13T11:03:38.413Z,5.30
2018-02-13T11:04:45.256Z,4.70
2018-02-13T11:05:51.989Z,5.00
2018-02-13T11:06:58.680Z,5.30
2018-02-13T11:08:05.382Z,4.60
2018-02-13T11:09:12.083Z,4.70
2018-02-13T11:10:18.799Z,5.30
2018-02-13T11:11:25.567Z,4.90
2018-02-13T11:12:32.734Z,5.20
2018-02-13T11:13:39.403Z,5.00
2018-02-13T11:14:46.575Z,4.80
2018-02-13T11:15:53.390Z,4.70
2018-02-13T11:17:00.175Z,5.30
2018-02-13T11:18:06.955Z,4.80
2018-02-13T11:19:13.719Z,4.70
2018-02-13T11:20:20.436Z,4.30
2018-02-13T11:21:27.183Z,4.40
2018-02-13T11:22:33.905Z,4.50
2018-02-13T11:23:40.652Z,4.60
2018-02-13T11:24:47.356Z,4.20
2018-02-13T11:25:54.051Z,4.50
2018-02-13T11:27:00.762Z,3.90
2018-02-13T11:28:07.484Z,3.90
2018-02-13T11:29:14.147Z,4.40
2018-02-13T11:30:20.814Z,4.20
2018-02-13T11:31:27.999Z,4.00
2018-02-13T11:32:34.760Z,3.70
2018-02-13T11:33:41.441Z,4.00
2018-02-13T11:34:48.623Z,4.20
2018-02-13T11:35:55.316Z,4.10
2018-02-13T11:37:02.067Z,3.80
2018-02-13T11:38:08.763Z,4.70
2018-02-13T11:39:15.496Z,3.70
2018-02-13T11:40:22.143Z,3.80
2018-02-13T11:41:28.892Z,4.30
2018-02-13T11:42:35.606Z,3.90
2018-02-13T11:43:42.288Z,3.90
2018-02-13T11:44:48.975Z,4.00
2018-02-13T11:45:55.651Z,3.30
2018-02-13T11:47:02.407Z,4.20
2018-02-13T11:48:09.083Z,4.00
2018-02-13T11:49:15.774Z,3.70
2018-02-13T11:50:22.526Z,4.40
2018-02-13T11:51:29.181Z,3.40
2018-02-13T11:52:36.368Z,4.40
2018-02-13T11:53:43.080Z,3.50
2018-02-13T11:54:49.779Z,3.60
2018-02-13T11:55:56.520Z,3.80
2018-02-13T11:57:03.349Z,3.70
2018-02-13T11:58:10.058Z,4.20
2018-02-13T11:59:16.786Z,3.80
2018-02-13T12:00:23.459Z,3.40
2018-02-13T12:01:30.138Z,4.00
2018-02-13T12:02:36.810Z,3.40
2018-02-13T12:03:43.635Z,3.50
2018-02-13T12:04:50.339Z,3.20
2018-02-13T12:05:57.014Z,3.50
2018-02-13T12:07:03.697Z,3.30
2018-02-13T12:08:10.529Z,3.70
2018-02-13T12:09:17.420Z,4.40
2018-02-13T12:10:24.125Z,4.20
2018-02-13T12:11:30.846Z,4.00
2018-02-13T12:12:37.544Z,3.70
2018-02-13T12:13:44.325Z,4.10
2018-02-13T12:14:51.151Z,4.30
2018-02-13T12:15:57.862Z,4.40
2018-02-13T12:17:04.561Z,4.50
2018-02-13T12:18:11.327Z,4.40
2018-02-13T12:19:18.180Z,4.50
2018-02-13T12:20:24.863Z,4.70
2018-02-13T12:21:31.564Z,4.80
2018-02-13T12:22:38.259Z,4.60
2018-02-13T12:23:44.971Z,4.50
2018-02-13T12:24:51.736Z,4.50
2018-02-13T12:25:58.443Z,4.60
2018-02-13T12:27:05.217Z,3.90
2018-02-13T12:28:11.978Z,4.70
2018-02-13T12:29:18.686Z,4.40
2018-02-13T12:30:25.531Z,4.30
2018-02-13T12:31:32.263Z,4.80
2018-02-13T12:32:39.067Z,4.40
2018-02-13T12:33:46.725Z,4.10
2018-02-13T12:34:53.256Z,4.80
2018-02-13T12:35:59.945Z,4.60
2018-02-13T12:37:06.683Z,4.50
2018-02-13T12:38:13.519Z,4.40
2018-02-13T12:39:20.338Z,4.60
2018-02-13T12:40:27.093Z,4.30
2018-02-13T12:41:33.815Z,3.70
2018-02-13T12:42:40.588Z,4.40
2018-02-13T12:43:47.279Z,4.00
2018-02-13T12:44:54.120Z,4.10
2018-02-13T12:46:00.863Z,4.20
2018-02-13T12:47:07.650Z,4.30
2018-02-13T12:48:14.355Z,4.80
2018-02-13T12:49:21.111Z,4.10
2018-02-13T12:50:27.839Z,4.00
2018-02-13T12:51:34.584Z,4.00
2018-02-13T12:52:41.323Z,3.80
2018-02-13T12:53:48.016Z,4.60
2018-02-13T12:54:54.782Z,4.40
2018-02-13T12:56:01.491Z,4.10
2018-02-13T12:57:08.230Z,4.10
2018-02-13T12:58:14.990Z,3.60
2018-02-13T12:59:21.685Z,4.10
2018-02-13T13:00:28.422Z,3.70
2018-02-13T13:01:35.176Z,3.90
2018-02-13T13:02:41.899Z,4.60
2018-02-13T13:03:48.674Z,3.50
2018-02-13T13:04:55.838Z,4.40
2018-02-13T13:06:02.692Z,4.50
2018-02-13T13:07:09.429Z,4.20
2018-02-13T13:08:16.240Z,3.90
2018-02-13T13:09:22.955Z,4.20
2018-02-13T13:10:29.835Z,3.70
2018-02-13T13:11:36.527Z,3.50
2018-02-13T13:12:43.340Z,4.10
2018-02-13T13:13:50.058Z,4.20
2018-02-13T13:14:56.751Z,4.10
2018-02-13T13:16:03.466Z,3.90
2018-02-13T13:17:10.199Z,3.80
2018-02-13T13:18:16.954Z,4.20
2018-02-13T13:19:23.679Z,3.80
2018-02-13T13:20:30.416Z,4.10
2018-02-13T13:21:37.110Z,3.90
2018-02-13T13:22:43.815Z,3.80
2018-02-13T13:23:50.504Z,4.00
2018-02-13T13:24:57.312Z,4.70
2018-02-13T13:26:04.007Z,3.30
2018-02-13T13:27:10.835Z,4.30
2018-02-13T13:28:17.646Z,3.80
2018-02-13T13:29:24.367Z,4.20
2018-02-13T13:30:31.080Z,4.30
2018-02-13T13:31:37.855Z,4.30
2018-02-13T13:32:44.704Z,4.10
2018-02-13T13:33:51.630Z,4.30
2018-02-13T13:34:58.318Z,4.20
2018-02-13T13:36:05.020Z,4.20
2018-02-13T13:37:11.740Z,3.20
2018-02-13T13:38:18.490Z,3.30
2018-02-13T13:39:25.198Z,3.70
2018-02-13T13:40:32.150Z,3.30
2018-02-13T13:41:38.870Z,3.60
2018-02-13T13:42:45.623Z,3.50
2018-02-13T13:43:52.357Z,3.20
2018-02-13T13:44:59.116Z,3.50
2018-02-13T13:46:06.022Z,3.70
2018-02-13T13:47:12.773Z,3.90
2018-02-13T13:48:19.498Z,4.20
2018-02-13T13:49:26.234Z,4.70
2018-02-13T13:50:32.962Z,3.80
2018-02-13T13:51:39.683Z,3.70
2018-02-13T13:52:46.372Z,3.90
2018-02-13T13:53:53.215Z,3.80
2018-02-13T13:55:00.028Z,3.20
2018-02-13T13:56:06.748Z,3.70
2018-02-13T13:57:13.484Z,3.50
2018-02-13T13:58:20.226Z,3.70
2018-02-13T13:59:26.954Z,4.60
2018-02-13T14:00:33.701Z,7.30
2018-02-13T14:01:40.467Z,7.00
2018-02-13T14:02:47.307Z,7.00
2018-02-13T14:03:54.299Z,7.10
2018-02-13T14:05:01.124Z,7.50
2018-02-13T14:06:07.903Z,6.80
2018-02-13T14:07:14.607Z,7.60
2018-02-13T14:08:21.476Z,6.40
2018-02-13T14:09:28.342Z,7.30
2018-02-13T14:10:35.360Z,7.60
2018-02-13T14:11:42.121Z,5.60
2018-02-13T14:12:48.880Z,6.00
2018-02-13T14:13:55.583Z,5.40
2018-02-13T14:15:02.320Z,7.10
2018-02-13T14:16:09.031Z,7.50
2018-02-13T14:17:16.374Z,6.50
2018-02-13T14:18:22.754Z,8.40
2018-02-13T14:19:29.593Z,7.00
2018-02-13T14:20:36.328Z,5.40
2018-02-13T14:21:43.127Z,5.60
2018-02-13T14:22:49.858Z,6.10
2018-02-13T14:23:56.703Z,5.80
2018-02-13T14:25:03.392Z,5.40
2018-02-13T14:26:10.167Z,5.90
2018-02-13T14:27:16.939Z,7.00
2018-02-13T14:28:23.784Z,5.20
2018-02-13T14:29:30.654Z,5.10
2018-02-13T14:30:37.550Z,5.80
2018-02-13T14:31:44.231Z,7.00
2018-02-13T14:32:50.947Z,5.40
2018-02-13T14:33:57.904Z,6.00
2018-02-13T14:35:04.471Z,4.00
2018-02-13T14:36:11.383Z,4.40
2018-02-13T14:37:18.073Z,3.80
2018-02-13T14:38:24.880Z,4.00
2018-02-13T14:39:31.993Z,4.10
2018-02-13T14:40:38.926Z,3.80
2018-02-13T14:41:45.645Z,3.60
2018-02-13T14:42:52.406Z,3.40
2018-02-13T14:43:59.122Z,4.10
2018-02-13T14:45:05.911Z,4.40